Time;durP1;ratioP1;P1;durP2;ratioP2;P2;SDS_P1;SDS_P2;PMS_P1;PMS_P2;Temp;Humidity;BMP_temperature;BMP_pressure;BME280_temperature;BME280_humidity;BME280_pressure;Samples;Min_cycle;Max_cycle;Signal;HPM_P1;HPM_P2
2023/02/12 00:01:01;;;;;;;10.40;7.15;;;21.60;36.90;;;;;;5062878;28;20277;-56
2023/02/12 00:03:27;;;;;;;7.57;6.40;;;21.60;36.90;;;;;;5059509;28;20059;-57
2023/02/12 00:05:53;;;;;;;8.38;6.40;;;21.60;36.90;;;;;;5058543;28;20060;-54
2023/02/12 00:08:18;;;;;;;9.10;6.53;;;21.60;36.90;;;;;;5062954;28;20045;-55
2023/02/12 00:10:44;;;;;;;9.35;6.88;;;21.60;36.90;;;;;;5060493;28;20103;-56
2023/02/12 00:13:11;;;;;;;8.43;6.57;;;21.60;36.90;;;;;;5059921;28;20020;-57
2023/02/12 00:15:41;;;;;;;9.05;6.00;;;21.60;36.90;;;;;;5060832;28;20041;-55
2023/02/12 00:18:07;;;;;;;8.73;6.70;;;21.50;36.80;;;;;;5060590;28;20029;-54
2023/02/12 00:20:33;;;;;;;7.55;5.72;;;21.50;36.90;;;;;;5058503;28;20028;-56
2023/02/12 00:22:59;;;;;;;8.50;6.53;;;21.50;36.90;;;;;;5058766;28;20016;-56
2023/02/12 00:25:25;;;;;;;8.40;6.35;;;21.50;36.90;;;;;;5064796;28;20031;-57
2023/02/12 00:27:51;;;;;;;7.63;6.25;;;21.50;36.90;;;;;;5064301;28;20089;-55
2023/02/12 00:30:17;;;;;;;8.48;6.35;;;21.50;36.90;;;;;;5060658;28;20029;-57
2023/02/12 00:32:44;;;;;;;8.63;6.38;;;21.50;36.90;;;;;;5057591;28;20021;-56
2023/02/12 00:35:11;;;;;;;8.00;6.15;;;21.50;36.90;;;;;;5058302;28;20048;-56
2023/02/12 00:37:38;;;;;;;8.70;6.25;;;21.50;36.90;;;;;;5047377;28;20037;-56
2023/02/12 00:40:05;;;;;;;11.50;6.68;;;21.50;36.90;;;;;;5038476;28;20174;-57
2023/02/12 00:42:31;;;;;;;7.75;6.18;;;21.50;36.90;;;;;;5060128;28;20025;-57
2023/02/12 00:44:57;;;;;;;8.02;5.80;;;21.50;36.80;;;;;;5062044;28;20056;-57
2023/02/12 00:47:23;;;;;;;8.65;6.25;;;21.50;36.90;;;;;;5061453;28;20041;-57
2023/02/12 00:49:49;;;;;;;7.45;6.15;;;21.50;36.90;;;;;;5043901;28;20048;-58
2023/02/12 00:52:14;;;;;;;8.63;6.22;;;21.50;36.80;;;;;;5058482;28;20029;-54
2023/02/12 00:54:40;;;;;;;7.75;6.43;;;21.50;36.90;;;;;;5042436;28;20058;-57
2023/02/12 00:57:06;;;;;;;7.78;5.75;;;21.50;36.90;;;;;;5044504;28;20021;-55
2023/02/12 00:59:35;;;;;;;7.07;5.85;;;21.50;36.90;;;;;;5038766;28;20044;-56
2023/02/12 01:02:01;;;;;;;7.93;6.00;;;21.40;36.80;;;;;;5034327;28;20337;-56
2023/02/12 01:04:26;;;;;;;7.72;6.18;;;21.40;36.80;;;;;;5062172;28;20031;-55
2023/02/12 01:06:54;;;;;;;7.85;5.90;;;21.40;36.80;;;;;;5055240;28;20127;-54
2023/02/12 01:09:20;;;;;;;7.80;5.70;;;21.40;36.80;;;;;;5038202;28;20025;-57
2023/02/12 01:11:47;;;;;;;7.32;5.57;;;21.40;36.80;;;;;;5041563;28;20039;-56
2023/02/12 01:14:13;;;;;;;7.88;5.97;;;21.40;36.80;;;;;;5059411;28;20036;-59
2023/02/12 01:16:39;;;;;;;8.95;6.55;;;21.40;36.90;;;;;;5058987;28;20097;-58
2023/02/12 01:19:04;;;;;;;8.55;6.57;;;21.40;36.80;;;;;;5043474;28;20025;-57
2023/02/12 01:21:33;;;;;;;8.57;6.53;;;21.40;36.80;;;;;;5059852;28;20025;-56
2023/02/12 01:24:01;;;;;;;8.48;6.78;;;21.40;36.90;;;;;;5062932;28;20111;-57
2023/02/12 01:26:28;;;;;;;7.78;6.35;;;21.40;36.90;;;;;;5057342;28;20360;-57
2023/02/12 01:29:00;;;;;;;6.20;5.60;;;21.40;36.80;;;;;;5040695;28;20029;-54
2023/02/12 01:31:29;;;;;;;8.60;6.40;;;21.40;36.90;;;;;;5058655;28;20342;-57
2023/02/12 01:33:56;;;;;;;8.05;6.20;;;21.40;36.90;;;;;;5059393;28;20017;-56
2023/02/12 01:36:23;;;;;;;7.55;6.40;;;21.30;36.80;;;;;;5066326;28;20024;-58
2023/02/12 01:38:49;;;;;;;8.85;6.53;;;21.40;36.90;;;;;;5060341;28;20093;-57
2023/02/12 01:41:19;;;;;;;8.32;6.30;;;21.30;36.80;;;;;;5060308;28;20021;-57
2023/02/12 01:43:45;;;;;;;7.93;6.07;;;21.30;36.90;;;;;;5038627;28;20444;-58
2023/02/12 01:46:13;;;;;;;7.57;6.10;;;21.30;36.90;;;;;;5063274;28;20339;-57
2023/02/12 01:48:43;;;;;;;7.82;6.20;;;21.30;36.90;;;;;;5039333;28;20616;-57
2023/02/12 01:51:13;;;;;;;8.60;6.82;;;21.30;37.00;;;;;;5021282;28;20383;-58
2023/02/12 01:53:45;;;;;;;8.10;6.25;;;21.30;36.90;;;;;;5038867;28;20436;-55
2023/02/12 01:56:12;;;;;;;7.85;6.13;;;21.30;37.00;;;;;;5059547;28;20028;-56
2023/02/12 01:58:42;;;;;;;8.20;6.18;;;21.30;37.00;;;;;;5038516;28;20037;-57
2023/02/12 02:01:16;;;;;;;9.05;6.40;;;21.30;37.00;;;;;;5056838;28;20948;-56
2023/02/12 02:03:49;;;;;;;7.03;5.63;;;21.30;37.00;;;;;;5062280;28;20040;-57
2023/02/12 02:06:21;;;;;;;8.35;5.65;;;21.30;37.00;;;;;;5041058;28;20092;-56
2023/02/12 02:08:47;;;;;;;9.00;6.47;;;21.30;37.00;;;;;;5037973;28;20108;-54
2023/02/12 02:16:56;;;;;;;7.25;6.03;;;21.20;36.90;;;;;;5058674;28;20112;-57
2023/02/12 02:19:39;;;;;;;7.22;5.97;;;21.20;36.90;;;;;;5054209;28;20041;-58
2023/02/12 02:22:25;;;;;;;7.43;5.82;;;21.20;36.90;;;;;;5060530;28;20024;-55
2023/02/12 02:25:00;;;;;;;6.65;5.78;;;21.20;37.00;;;;;;5000086;28;20036;-57
2023/02/12 02:27:26;;;;;;;9.77;5.90;;;21.20;37.00;;;;;;5038119;28;20044;-56
2023/02/12 02:30:05;;;;;;;8.13;6.13;;;21.20;37.00;;;;;;5061835;28;20437;-56
2023/02/12 02:32:59;;;;;;;5.82;5.22;;;21.20;37.00;;;;;;5056744;28;20048;-55
2023/02/12 02:35:32;;;;;;;8.70;6.28;;;21.20;37.00;;;;;;5061538;28;20055;-57
2023/02/12 02:38:23;;;;;;;7.65;5.82;;;21.20;37.00;;;;;;5061302;28;20031;-56
2023/02/12 02:40:52;;;;;;;7.25;5.93;;;21.20;37.00;;;;;;5064912;28;20025;-56
2023/02/12 02:43:30;;;;;;;7.95;5.53;;;21.10;37.00;;;;;;5065696;28;20303;-57
2023/02/12 02:46:05;;;;;;;7.22;5.40;;;21.20;37.00;;;;;;5064667;28;20039;-57
2023/02/12 02:48:37;;;;;;;6.97;5.68;;;21.10;37.00;;;;;;5059419;28;20036;-55
2023/02/12 02:51:09;;;;;;;6.60;5.80;;;21.20;37.00;;;;;;5058918;28;20060;-58
2023/02/12 02:53:47;;;;;;;7.90;5.82;;;21.10;37.00;;;;;;5061475;28;20040;-57
2023/02/12 02:56:19;;;;;;;7.05;5.63;;;21.10;37.00;;;;;;5058514;28;20404;-57
2023/02/12 02:59:02;;;;;;;7.65;5.78;;;21.10;37.00;;;;;;5058773;28;20464;-54
2023/02/12 03:01:32;;;;;;;6.65;5.50;;;21.10;37.00;;;;;;5031130;28;20021;-56
2023/02/12 03:04:31;;;;;;;6.90;5.57;;;21.10;37.00;;;;;;5059562;28;20047;-57
2023/02/12 03:07:15;;;;;;;7.30;5.65;;;21.10;37.00;;;;;;5067845;28;20056;-57
2023/02/12 03:09:47;;;;;;;7.30;5.40;;;21.10;37.00;;;;;;5062094;28;20024;-57
2023/02/12 03:12:23;;;;;;;8.13;5.50;;;21.10;37.60;;;;;;5063687;28;20021;-56
2023/02/12 03:15:00;;;;;;;7.18;5.55;;;21.10;37.00;;;;;;5059252;28;20033;-57
2023/02/12 03:17:34;;;;;;;7.25;5.20;;;21.10;37.00;;;;;;5044296;28;20175;-58
2023/02/12 03:20:08;;;;;;;7.82;5.35;;;21.00;36.90;;;;;;5063904;28;20043;-58
2023/02/12 03:22:40;;;;;;;6.10;4.97;;;21.00;36.90;;;;;;5060764;28;20118;-56
2023/02/12 03:25:13;;;;;;;5.53;4.80;;;21.00;36.90;;;;;;5059693;28;20032;-57
2023/02/12 03:27:51;;;;;;;6.85;4.82;;;21.00;36.90;;;;;;5062386;28;20044;-57
2023/02/12 03:30:19;;;;;;;7.70;5.50;;;21.00;36.90;;;;;;5059269;28;20029;-56
2023/02/12 03:33:10;;;;;;;5.90;4.68;;;21.00;36.90;;;;;;5039301;28;20036;-58
2023/02/12 03:35:48;;;;;;;6.47;5.20;;;21.00;36.90;;;;;;5063103;28;20079;-56
2023/02/12 03:38:37;;;;;;;6.80;5.20;;;21.00;36.90;;;;;;5060702;28;20040;-58
2023/02/12 03:41:09;;;;;;;6.90;4.80;;;21.00;36.90;;;;;;5062114;28;20032;-57
2023/02/12 03:44:13;;;;;;;6.28;4.88;;;21.00;36.90;;;;;;5061178;28;20088;-57
2023/02/12 03:47:09;;;;;;;5.50;4.82;;;21.00;36.90;;;;;;5035450;28;20063;-56
2023/02/12 03:49:41;;;;;;;7.07;4.63;;;21.00;36.90;;;;;;5064131;28;20407;-58
2023/02/12 03:52:07;;;;;;;5.47;4.50;;;21.00;36.90;;;;;;5057687;28;20033;-59
2023/02/12 03:54:35;;;;;;;7.07;4.97;;;21.00;36.90;;;;;;5058765;28;20099;-54
2023/02/12 03:57:17;;;;;;;5.45;4.38;;;21.00;36.90;;;;;;5062097;28;20106;-57
2023/02/12 03:59:43;;;;;;;5.75;4.97;;;21.00;36.90;;;;;;5060477;28;20048;-57
2023/02/12 04:02:09;;;;;;;6.93;5.25;;;20.90;36.90;;;;;;5059952;28;20033;-57
2023/02/12 04:04:37;;;;;;;6.22;4.72;;;21.00;36.90;;;;;;5060373;28;20357;-57
2023/02/12 04:07:03;;;;;;;6.00;4.50;;;20.90;36.90;;;;;;5056967;28;20507;-57
2023/02/12 04:09:31;;;;;;;6.55;4.60;;;20.90;36.90;;;;;;5060333;28;20444;-57
2023/02/12 04:12:44;;;;;;;7.47;4.90;;;21.00;37.00;;;;;;5061419;28;20035;-58
2023/02/12 04:15:22;;;;;;;6.85;4.72;;;20.90;36.90;;;;;;5007668;28;20049;-57
2023/02/12 04:17:54;;;;;;;5.70;4.20;;;20.90;36.90;;;;;;5057779;28;20020;-57
2023/02/12 04:20:22;;;;;;;5.72;4.72;;;20.90;36.90;;;;;;5036709;28;20037;-58
2023/02/12 04:23:22;;;;;;;6.28;4.28;;;20.90;36.90;;;;;;5061964;28;20115;-55
2023/02/12 04:26:08;;;;;;;6.47;4.72;;;20.90;36.90;;;;;;5057882;28;20086;-54
2023/02/12 04:28:40;;;;;;;5.47;4.30;;;20.90;36.90;;;;;;5061410;28;20033;-56
2023/02/12 04:31:19;;;;;;;6.70;4.47;;;20.90;36.90;;;;;;5063158;28;20418;-54
2023/02/12 04:34:13;;;;;;;5.93;4.60;;;20.80;36.80;;;;;;5063192;28;20370;-55
2023/02/12 04:37:02;;;;;;;6.20;4.47;;;20.80;36.90;;;;;;5062870;28;20033;-54
2023/02/12 04:39:32;;;;;;;5.88;4.38;;;20.80;36.80;;;;;;5058577;28;20453;-56
2023/02/12 04:42:00;;;;;;;5.80;4.55;;;20.90;36.90;;;;;;5061841;28;20020;-57
2023/02/12 04:44:29;;;;;;;6.13;4.40;;;20.90;36.90;;;;;;5063996;28;20037;-58
2023/02/12 04:46:55;;;;;;;5.38;3.90;;;20.80;36.90;;;;;;5056783;28;20368;-58
2023/02/12 04:49:22;;;;;;;5.25;4.13;;;20.80;36.90;;;;;;5062928;28;20032;-57
2023/02/12 04:51:49;;;;;;;5.50;4.32;;;20.80;37.00;;;;;;5062152;28;20017;-57
2023/02/12 04:54:17;;;;;;;5.53;4.07;;;20.80;37.00;;;;;;5038690;28;20021;-59
2023/02/12 04:56:43;;;;;;;5.28;3.97;;;20.80;36.90;;;;;;5057246;28;20068;-58
2023/02/12 04:59:09;;;;;;;5.80;4.30;;;20.80;36.90;;;;;;5053034;28;20025;-58
2023/02/12 05:01:37;;;;;;;5.50;4.15;;;20.80;36.90;;;;;;5065503;28;20036;-55
2023/02/12 05:04:04;;;;;;;5.95;4.57;;;20.80;37.00;;;;;;5043618;28;20035;-56
2023/02/12 05:06:33;;;;;;;6.00;4.22;;;20.80;37.00;;;;;;5054786;28;20033;-53
2023/02/12 05:08:59;;;;;;;6.28;4.45;;;20.80;37.00;;;;;;5061000;28;20035;-54
2023/02/12 05:11:24;;;;;;;5.63;3.95;;;20.80;37.00;;;;;;5058399;28;20032;-56
2023/02/12 05:13:51;;;;;;;5.90;4.38;;;20.80;37.00;;;;;;5058333;28;20346;-57
2023/02/12 05:16:17;;;;;;;5.03;4.20;;;20.80;37.00;;;;;;5057828;28;20037;-58
2023/02/12 05:18:43;;;;;;;4.90;4.13;;;20.80;37.00;;;;;;5057405;28;20037;-57
2023/02/12 05:21:09;;;;;;;5.63;4.10;;;20.80;37.00;;;;;;5057163;28;20104;-52
2023/02/12 05:23:37;;;;;;;7.05;4.50;;;20.80;37.00;;;;;;5055753;28;20424;-57
2023/02/12 05:26:11;;;;;;;6.00;4.78;;;20.80;37.00;;;;;;5057630;28;20020;-57
2023/02/12 05:28:37;;;;;;;5.45;4.45;;;20.80;37.00;;;;;;5059682;28;20444;-53
2023/02/12 05:31:07;;;;;;;5.30;4.13;;;20.80;37.00;;;;;;5059026;28;20090;-56
2023/02/12 05:33:33;;;;;;;6.35;4.22;;;20.80;37.00;;;;;;5054468;28;20029;-56
2023/02/12 05:36:07;;;;;;;6.97;3.97;;;20.80;37.00;;;;;;5058441;28;20082;-55
2023/02/12 05:38:33;;;;;;;6.32;4.43;;;20.80;37.00;;;;;;5057812;28;20047;-56
2023/02/12 05:41:10;;;;;;;4.35;3.63;;;20.70;36.90;;;;;;5060910;28;20025;-52
2023/02/12 05:43:37;;;;;;;5.32;3.80;;;20.70;36.90;;;;;;5058784;28;20471;-56
2023/02/12 05:46:05;;;;;;;5.40;4.30;;;20.70;36.90;;;;;;5054832;28;20098;-57
2023/02/12 05:48:32;;;;;;;5.70;3.90;;;20.70;36.90;;;;;;5058519;28;20031;-55
2023/02/12 05:51:06;;;;;;;4.65;3.85;;;20.70;36.90;;;;;;5058696;28;20094;-55
2023/02/12 05:53:32;;;;;;;4.93;3.97;;;20.70;36.90;;;;;;5059335;28;20376;-56
2023/02/12 05:56:26;;;;;;;3.80;3.40;;;20.70;36.90;;;;;;5058627;28;21254;-50
2023/02/12 05:58:55;;;;;;;5.45;3.58;;;20.70;36.90;;;;;;5052068;28;20048;-56
2023/02/12 06:01:25;;;;;;;4.75;3.90;;;20.70;36.90;;;;;;5058066;28;20043;-56
2023/02/12 06:03:53;;;;;;;5.03;3.85;;;20.70;37.00;;;;;;5057119;28;20093;-57
2023/02/12 06:06:19;;;;;;;5.28;3.70;;;20.70;36.90;;;;;;5056049;28;20372;-55
2023/02/12 06:08:48;;;;;;;4.80;3.72;;;20.70;36.90;;;;;;5043152;28;20063;-56
2023/02/12 06:11:15;;;;;;;4.53;3.60;;;20.60;37.50;;;;;;5062920;28;20028;-56
2023/02/12 06:13:41;;;;;;;5.35;3.75;;;20.60;36.90;;;;;;5063523;28;20047;-57
2023/02/12 06:16:15;;;;;;;4.15;3.58;;;20.70;36.90;;;;;;5060354;28;20479;-55
2023/02/12 06:18:41;;;;;;;3.70;3.15;;;20.60;36.90;;;;;;5057493;28;20025;-54
2023/02/12 06:21:06;;;;;;;5.85;4.05;;;20.60;36.90;;;;;;5045867;28;20471;-55
2023/02/12 06:23:32;;;;;;;4.25;3.30;;;20.60;36.90;;;;;;5061004;28;20024;-57
2023/02/12 06:25:58;;;;;;;5.88;3.70;;;20.60;36.90;;;;;;5066209;28;20020;-56
2023/02/12 06:28:24;;;;;;;4.88;3.70;;;20.60;36.90;;;;;;5043496;28;20032;-57
2023/02/12 06:30:50;;;;;;;4.75;3.25;;;20.60;36.90;;;;;;5063600;28;20107;-57
2023/02/12 06:33:16;;;;;;;3.95;3.00;;;20.60;36.90;;;;;;5061245;28;20048;-57
2023/02/12 06:35:42;;;;;;;4.45;3.15;;;20.60;36.90;;;;;;5064035;28;20029;-54
2023/02/12 06:38:08;;;;;;;4.00;3.17;;;20.60;36.80;;;;;;5044231;28;20457;-57
2023/02/12 06:40:34;;;;;;;4.28;3.47;;;20.60;36.80;;;;;;5045755;28;20368;-56
2023/02/12 06:43:00;;;;;;;7.00;3.20;;;20.60;36.80;;;;;;5062056;28;20024;-57
2023/02/12 06:45:26;;;;;;;3.83;3.08;;;20.60;36.80;;;;;;5041519;28;20020;-54
2023/02/12 06:47:52;;;;;;;4.07;2.88;;;20.60;36.80;;;;;;5065902;28;20504;-54
2023/02/12 06:50:18;;;;;;;3.72;2.80;;;20.60;36.80;;;;;;5062361;28;20162;-55
2023/02/12 06:52:44;;;;;;;4.30;3.03;;;20.60;36.80;;;;;;5062051;28;20041;-57
2023/02/12 06:55:10;;;;;;;3.35;2.63;;;20.60;36.80;;;;;;5039855;28;20025;-52
2023/02/12 06:57:36;;;;;;;4.15;2.90;;;20.60;36.80;;;;;;5050999;28;20451;-54
2023/02/12 07:00:02;;;;;;;3.70;2.90;;;20.60;36.80;;;;;;5064245;28;20089;-54
2023/02/12 07:02:28;;;;;;;3.42;2.88;;;20.60;36.80;;;;;;5065608;28;20056;-56
2023/02/12 07:04:53;;;;;;;3.33;2.90;;;20.50;36.80;;;;;;5064737;28;20071;-56
2023/02/12 07:07:19;;;;;;;3.97;3.13;;;20.60;36.80;;;;;;5064469;28;20450;-55
2023/02/12 07:09:45;;;;;;;4.13;3.28;;;20.50;36.80;;;;;;5048527;28;20364;-54
2023/02/12 07:12:11;;;;;;;4.90;3.13;;;20.50;36.80;;;;;;5060075;28;20048;-57
2023/02/12 07:14:37;;;;;;;3.88;3.15;;;20.50;37.50;;;;;;5062257;28;20439;-56
2023/02/12 07:17:04;;;;;;;4.03;3.15;;;20.50;36.80;;;;;;5064923;28;20020;-55
2023/02/12 07:19:30;;;;;;;4.60;3.63;;;20.50;36.90;;;;;;5057453;28;20329;-57
2023/02/12 07:21:56;;;;;;;6.05;3.80;;;20.50;36.90;;;;;;5041006;28;20032;-55
2023/02/12 07:24:22;;;;;;;4.30;3.30;;;20.50;36.90;;;;;;5062359;28;20040;-53
2023/02/12 07:26:47;;;;;;;5.50;3.40;;;20.50;36.90;;;;;;5057443;28;20360;-57
2023/02/12 07:29:13;;;;;;;4.85;3.15;;;20.50;36.90;;;;;;5041371;28;20131;-56
2023/02/12 07:31:40;;;;;;;4.65;3.65;;;20.50;36.90;;;;;;5053349;28;20028;-57
2023/02/12 07:34:06;;;;;;;5.72;3.28;;;20.50;36.90;;;;;;5057574;28;20029;-57
2023/02/12 07:36:32;;;;;;;4.22;3.13;;;20.50;37.00;;;;;;5058036;28;20041;-57
2023/02/12 07:39:00;;;;;;;3.90;3.40;;;20.50;37.00;;;;;;5057022;28;20082;-55
2023/02/12 07:41:35;;;;;;;5.22;3.50;;;20.50;37.00;;;;;;5036577;28;20032;-57
2023/02/12 07:44:10;;;;;;;4.30;3.00;;;20.50;37.00;;;;;;5056545;28;20036;-57
2023/02/12 07:46:40;;;;;;;4.30;3.45;;;20.50;37.00;;;;;;5044662;28;20410;-56
2023/02/12 07:49:11;;;;;;;4.88;3.60;;;20.50;37.00;;;;;;5038571;28;20040;-56
2023/02/12 07:51:38;;;;;;;4.28;3.20;;;20.50;37.00;;;;;;5060436;28;20145;-56
2023/02/12 07:54:04;;;;;;;4.75;3.67;;;20.50;37.00;;;;;;5056064;28;20116;-54
2023/02/12 07:56:34;;;;;;;4.13;3.17;;;20.50;37.00;;;;;;5056394;28;20424;-56
2023/02/12 07:59:02;;;;;;;4.75;3.60;;;20.50;37.10;;;;;;5055945;28;20041;-55
2023/02/12 08:01:34;;;;;;;5.43;3.90;;;20.50;37.10;;;;;;5054784;28;20082;-54
2023/02/12 08:04:06;;;;;;;5.88;4.15;;;20.50;37.10;;;;;;5060600;28;20522;-57
2023/02/12 08:06:34;;;;;;;6.20;5.03;;;20.50;37.10;;;;;;5059292;28;20037;-54
2023/02/12 08:09:04;;;;;;;7.78;5.25;;;20.40;37.10;;;;;;5039763;28;20475;-55
2023/02/12 08:11:32;;;;;;;6.55;5.30;;;20.40;37.20;;;;;;5065155;28;20078;-55
2023/02/12 08:13:59;;;;;;;7.95;5.90;;;20.40;37.20;;;;;;5063691;28;20040;-56
2023/02/12 08:16:27;;;;;;;7.07;5.72;;;20.40;37.20;;;;;;5057734;28;20060;-56
2023/02/12 08:18:53;;;;;;;8.05;6.53;;;20.40;37.20;;;;;;5055779;28;20033;-57
2023/02/12 08:21:25;;;;;;;8.75;6.82;;;20.40;37.20;;;;;;5055707;28;20433;-56
2023/02/12 08:23:53;;;;;;;9.20;7.35;;;20.40;37.20;;;;;;5050036;28;20033;-55
2023/02/12 08:26:25;;;;;;;8.38;7.07;;;20.40;37.20;;;;;;5063342;28;20044;-54
2023/02/12 08:29:09;;;;;;;9.57;7.70;;;20.40;37.20;;;;;;5065107;28;20120;-52
2023/02/12 08:31:38;;;;;;;10.07;8.25;;;20.40;37.20;;;;;;5067896;28;20120;-56
2023/02/12 08:34:04;;;;;;;11.77;8.70;;;20.40;37.20;;;;;;5065622;28;20039;-54
2023/02/12 08:36:37;;;;;;;12.63;9.73;;;20.50;37.30;;;;;;5064850;28;20016;-55
2023/02/12 08:39:03;;;;;;;12.80;8.88;;;20.50;37.30;;;;;;5045626;28;20070;-55
2023/02/12 08:41:30;;;;;;;10.88;8.95;;;20.50;37.30;;;;;;5044340;28;20086;-55
2023/02/12 08:43:58;;;;;;;10.88;8.73;;;20.50;37.30;;;;;;5064470;28;20028;-55
2023/02/12 08:46:27;;;;;;;10.40;8.27;;;20.50;37.20;;;;;;5063009;28;20124;-56
2023/02/12 08:48:56;;;;;;;12.05;9.27;;;20.50;37.20;;;;;;5062928;28;20337;-56
2023/02/12 08:51:24;;;;;;;10.80;9.50;;;20.50;37.20;;;;;;5063468;28;20029;-56
2023/02/12 08:53:56;;;;;;;14.30;11.25;;;20.50;37.30;;;;;;5062764;28;20348;-56
2023/02/12 08:56:24;;;;;;;14.45;11.63;;;20.50;37.40;;;;;;5062492;28;20040;-55
2023/02/12 08:58:50;;;;;;;15.93;12.93;;;20.50;37.60;;;;;;5062987;28;20056;-56
2023/02/12 09:01:19;;;;;;;14.15;11.50;;;20.50;37.70;;;;;;5063222;28;20040;-54
2023/02/12 09:03:47;;;;;;;15.95;11.38;;;20.50;37.70;;;;;;5064142;28;20025;-57
2023/02/12 09:06:15;;;;;;;13.60;11.15;;;20.50;37.60;;;;;;5063145;28;20060;-57
2023/02/12 09:08:42;;;;;;;12.73;10.40;;;20.60;37.60;;;;;;5055961;28;20032;-57
2023/02/12 09:11:11;;;;;;;13.57;10.35;;;20.60;37.50;;;;;;5054991;28;20029;-52
2023/02/12 09:13:38;;;;;;;13.07;10.15;;;20.60;37.40;;;;;;5056878;28;20024;-56
2023/02/12 09:16:05;;;;;;;14.13;10.32;;;20.70;37.30;;;;;;5056948;28;20068;-57
2023/02/12 09:18:31;;;;;;;13.75;9.88;;;20.70;37.20;;;;;;5052896;28;20025;-56
2023/02/12 09:21:03;;;;;;;11.63;8.95;;;20.70;37.10;;;;;;5057082;28;20440;-56
2023/02/12 09:23:29;;;;;;;11.80;9.23;;;20.70;37.00;;;;;;5038258;28;20029;-54
2023/02/12 09:25:54;;;;;;;11.18;8.63;;;20.80;37.00;;;;;;5063433;28;20032;-55
2023/02/12 09:28:20;;;;;;;11.77;8.88;;;20.80;36.90;;;;;;5062563;28;20051;-56
2023/02/12 09:30:46;;;;;;;11.70;9.25;;;20.80;36.80;;;;;;5068358;28;20042;-57
2023/02/12 09:33:12;;;;;;;9.65;7.88;;;20.90;36.90;;;;;;5054511;28;20028;-62
2023/02/12 09:35:38;;;;;;;8.13;6.63;;;20.90;36.90;;;;;;5038812;28;20020;-56
2023/02/12 09:38:05;;;;;;;8.30;6.43;;;20.90;36.90;;;;;;5061068;28;20085;-55
2023/02/12 09:40:47;;;;;;;7.40;5.80;;;20.90;36.80;;;;;;5060942;28;20322;-59
2023/02/12 09:43:32;;;;;;;7.32;5.30;;;20.90;36.70;;;;;;5062965;28;20033;-56
2023/02/12 09:46:18;;;;;;;6.60;5.55;;;20.90;36.60;;;;;;5061381;28;20353;-55
2023/02/12 09:49:17;;;;;;;7.45;6.13;;;21.00;36.50;;;;;;5060088;28;20043;-53
2023/02/12 09:51:47;;;;;;;8.68;6.70;;;21.00;36.50;;;;;;5062653;28;20103;-55
2023/02/12 09:54:17;;;;;;;10.07;6.63;;;21.00;36.40;;;;;;5061237;28;20355;-56
2023/02/12 09:56:48;;;;;;;7.72;6.43;;;21.00;36.30;;;;;;5062822;28;20033;-56
2023/02/12 09:59:41;;;;;;;8.18;6.38;;;21.00;36.30;;;;;;5046136;28;20040;-56
2023/02/12 10:02:15;;;;;;;7.75;6.70;;;21.10;36.30;;;;;;5062478;28;20079;-56
2023/02/12 10:04:46;;;;;;;8.85;6.57;;;21.10;36.20;;;;;;5059885;28;20037;-57
2023/02/12 10:07:12;;;;;;;8.05;6.95;;;21.10;36.20;;;;;;5059709;28;20041;-61
2023/02/12 10:09:57;;;;;;;7.40;6.40;;;21.10;36.30;;;;;;5055729;28;20104;-61
2023/02/12 10:12:33;;;;;;;;;;;21.20;36.50;;;;;;5058066;28;20502;-61
2023/02/12 10:15:33;;;;;;;7.88;6.65;;;21.20;36.50;;;;;;5057900;28;19925;-59
2023/02/12 10:18:14;;;;;;;8.85;6.70;;;21.30;36.50;;;;;;5060971;28;20064;-58
2023/02/12 10:20:46;;;;;;;7.60;6.22;;;21.50;36.50;;;;;;5060573;28;20043;-58
2023/02/12 10:23:30;;;;;;;9.13;6.53;;;21.60;36.50;;;;;;5062001;28;20037;-59
2023/02/12 10:26:08;;;;;;;8.10;6.30;;;21.70;36.50;;;;;;5042951;28;20081;-57
2023/02/12 10:28:39;;;;;;;8.43;6.55;;;21.80;36.40;;;;;;5044617;28;20063;-58
2023/02/12 10:31:18;;;;;;;10.60;8.45;;;21.80;36.20;;;;;;5060438;28;20052;-59
2023/02/12 10:33:50;;;;;;;17.27;11.52;;;22.00;36.50;;;;;;5064421;28;20356;-60
2023/02/12 10:36:28;;;;;;;22.27;13.45;;;22.00;37.50;;;;;;5061865;28;20036;-58
2023/02/12 10:39:00;;;;;;;26.58;17.95;;;22.20;39.00;;;;;;5045016;28;20036;-58
2023/02/12 10:41:28;;;;;;;34.85;21.05;;;22.20;39.30;;;;;;5042194;28;20120;-54
2023/02/12 10:43:55;;;;;;;30.98;22.50;;;22.30;39.40;;;;;;5061583;28;20029;-58
2023/02/12 10:46:21;;;;;;;31.73;24.55;;;22.40;39.10;;;;;;5042950;28;20387;-58
2023/02/12 10:48:57;;;;;;;33.17;26.67;;;22.40;38.80;;;;;;5061746;28;20036;-54
2023/02/12 10:51:42;;;;;;;38.38;29.05;;;22.50;38.60;;;;;;5061614;28;20072;-60
2023/02/12 10:54:31;;;;;;;27.48;20.17;;;22.50;38.50;;;;;;5043746;28;20039;-58
2023/02/12 10:56:59;;;;;;;22.27;16.73;;;22.50;37.90;;;;;;5064763;28;20044;-56
2023/02/12 10:59:25;;;;;;;20.67;13.38;;;22.50;37.30;;;;;;5064684;28;20044;-60
2023/02/12 11:01:51;;;;;;;18.60;13.88;;;22.50;36.80;;;;;;5064268;28;20094;-56
2023/02/12 11:04:24;;;;;;;20.05;15.85;;;22.50;36.80;;;;;;5066651;28;20459;-58
2023/02/12 11:07:03;;;;;;;28.02;20.02;;;22.50;36.50;;;;;;5066355;28;20064;-56
2023/02/12 11:09:35;;;;;;;30.38;22.67;;;22.60;36.90;;;;;;5065720;28;20032;-56
2023/02/12 11:12:02;;;;;;;34.88;24.77;;;22.60;37.30;;;;;;5046548;28;20451;-58
2023/02/12 11:14:29;;;;;;;35.63;25.40;;;22.70;37.60;;;;;;5064119;28;20401;-55
2023/02/12 11:17:00;;;;;;;37.38;27.63;;;22.80;37.70;;;;;;5047745;28;20033;-60
2023/02/12 11:19:29;;;;;;;38.78;28.02;;;22.80;38.10;;;;;;5063759;28;20039;-59
2023/02/12 11:22:17;;;;;;;37.30;27.50;;;22.80;38.60;;;;;;5065891;28;20035;-59
2023/02/12 11:24:45;;;;;;;39.65;26.67;;;22.90;38.90;;;;;;5065222;28;20021;-56
2023/02/12 11:27:20;;;;;;;32.03;24.30;;;22.90;38.80;;;;;;5064744;28;20067;-57
2023/02/12 11:30:12;;;;;;;31.88;22.80;;;23.00;38.40;;;;;;5065841;28;20094;-58
2023/02/12 11:32:38;;;;;;;28.10;22.23;;;23.00;37.90;;;;;;5062543;28;20037;-57
2023/02/12 11:35:24;;;;;;;25.52;20.83;;;23.00;37.60;;;;;;5064912;28;20036;-59
2023/02/12 11:37:54;;;;;;;28.83;21.00;;;23.10;37.90;;;;;;5063618;28;20021;-55
2023/02/12 11:40:27;;;;;;;26.45;21.17;;;23.10;37.00;;;;;;5064660;28;20108;-59
2023/02/12 11:43:06;;;;;;;26.33;20.67;;;23.00;36.80;;;;;;5062120;28;20375;-56
2023/02/12 11:45:50;;;;;;;26.83;20.83;;;23.00;36.60;;;;;;5066228;28;20031;-56
2023/02/12 11:48:22;;;;;;;26.95;19.88;;;23.10;36.50;;;;;;5065391;28;20036;-56
2023/02/12 11:50:53;;;;;;;23.92;19.42;;;23.10;36.30;;;;;;5066308;28;20029;-56
2023/02/12 11:53:29;;;;;;;28.05;20.08;;;23.00;36.10;;;;;;5063275;28;20187;-58
2023/02/12 11:56:09;;;;;;;25.42;19.67;;;23.00;35.90;;;;;;5065317;28;20071;-57
2023/02/12 11:58:37;;;;;;;21.42;16.88;;;23.00;35.90;;;;;;5051386;28;20043;-55
2023/02/12 12:01:34;;;;;;;19.58;15.75;;;23.00;35.90;;;;;;5076673;28;20472;-58
2023/02/12 12:04:15;;;;;;;20.58;16.33;;;23.00;35.90;;;;;;5063097;28;20117;-58
2023/02/12 12:06:50;;;;;;;22.17;18.30;;;23.10;36.20;;;;;;5039033;28;20044;-59
2023/02/12 12:09:41;;;;;;;25.23;20.05;;;23.00;36.20;;;;;;5056530;28;20067;-57
2023/02/12 12:12:24;;;;;;;26.25;21.52;;;23.10;36.50;;;;;;5044786;28;20037;-58
2023/02/12 12:20:55;;;;;;;23.70;19.60;;;23.20;36.50;;;;;;5059232;28;20029;-56
2023/02/12 12:23:30;;;;;;;23.52;19.33;;;23.20;36.50;;;;;;5045773;28;20467;-56
2023/02/12 12:26:07;;;;;;;22.42;18.27;;;23.20;36.30;;;;;;5060391;28;20028;-58
2023/02/12 12:28:58;;;;;;;20.85;18.13;;;23.30;36.30;;;;;;5063618;28;20051;-58
2023/02/12 12:31:42;;;;;;;22.60;18.02;;;23.30;36.20;;;;;;5059401;28;20104;-57
2023/02/12 12:34:18;;;;;;;23.23;18.98;;;23.30;36.20;;;;;;5061475;28;20029;-55
2023/02/12 12:37:23;;;;;;;20.48;18.05;;;23.40;36.10;;;;;;5067535;28;20040;-55
2023/02/12 12:39:55;;;;;;;18.40;15.88;;;23.40;35.80;;;;;;5060009;28;20078;-55
2023/02/12 12:43:00;;;;;;;21.13;16.50;;;23.40;35.50;;;;;;5062525;28;20071;-55
2023/02/12 12:45:38;;;;;;;19.23;14.93;;;23.40;35.20;;;;;;5061283;28;20040;-56
2023/02/12 12:48:36;;;;;;;16.40;13.80;;;23.40;35.00;;;;;;5063821;28;20032;-53
2023/02/12 12:51:23;;;;;;;13.63;12.02;;;23.30;34.60;;;;;;5065529;28;20103;-55
2023/02/12 12:53:58;;;;;;;14.63;11.63;;;23.30;34.30;;;;;;5061684;28;20039;-56
2023/02/12 12:57:05;;;;;;;14.07;11.75;;;23.20;34.10;;;;;;5063403;28;20025;-56
2023/02/12 13:00:11;;;;;;;12.73;10.32;;;23.20;34.00;;;;;;5073285;28;20039;-55
2023/02/12 13:03:26;;;;;;;12.38;9.88;;;23.10;33.80;;;;;;5063987;28;20025;-61
2023/02/12 13:06:24;;;;;;;11.90;9.98;;;23.00;33.80;;;;;;5062541;28;20024;-59
2023/02/12 13:09:23;;;;;;;10.98;9.75;;;22.90;34.00;;;;;;5061036;28;20036;-58
2023/02/12 13:12:06;;;;;;;11.48;9.05;;;22.80;34.10;;;;;;5040776;28;20021;-59
2023/02/12 13:15:00;;;;;;;10.93;9.38;;;22.80;34.40;;;;;;5059669;28;20448;-56
2023/02/12 13:18:13;;;;;;;11.80;9.63;;;22.80;34.50;;;;;;5054635;28;20119;-59
2023/02/12 13:21:05;;;;;;;10.73;9.20;;;22.80;34.60;;;;;;5071181;28;20079;-53
2023/02/12 13:23:50;;;;;;;12.38;10.23;;;22.70;34.60;;;;;;5054460;28;20036;-59